createdAt,value
2023-01-28T00:01:49.912Z,92.33
2023-01-28T00:04:16.939Z,92.08
2023-01-28T00:06:43.860Z,92.45
2023-01-28T00:09:10.946Z,92.19
2023-01-28T00:11:37.901Z,92.98
2023-01-28T00:14:04.943Z,92.36
2023-01-28T00:16:31.945Z,91.66
2023-01-28T00:18:58.927Z,92.02
2023-01-28T00:21:26.605Z,92.00
2023-01-28T00:23:55.772Z,90.93
2023-01-28T00:26:25.320Z,91.53
2023-01-28T00:28:52.309Z,91.46
2023-01-28T00:31:24.955Z,91.56
2023-01-28T00:33:52.981Z,91.39
2023-01-28T00:36:21.206Z,90.92
2023-01-28T00:38:53.108Z,91.08
2023-01-28T00:41:22.144Z,90.82
2023-01-28T00:43:51.990Z,90.62
2023-01-28T00:46:19.995Z,90.63
2023-01-28T00:48:47.560Z,90.50
2023-01-28T00:51:17.343Z,90.58
2023-01-28T00:53:44.826Z,91.03
2023-01-28T00:56:15.141Z,90.28
2023-01-28T00:58:42.878Z,90.28
2023-01-28T01:01:21.640Z,90.51
2023-01-28T01:03:57.601Z,89.67
2023-01-28T01:06:25.800Z,90.18
2023-01-28T01:08:52.823Z,89.46
2023-01-28T01:11:19.932Z,89.39
2023-01-28T01:13:59.993Z,89.67
2023-01-28T01:16:29.914Z,89.72
2023-01-28T01:18:57.066Z,89.42
2023-01-28T01:21:26.856Z,88.77
2023-01-28T01:23:54.396Z,89.33
2023-01-28T01:26:22.527Z,89.23
2023-01-28T01:28:51.693Z,89.04
2023-01-28T01:31:20.231Z,89.14
2023-01-28T01:33:49.860Z,88.65
2023-01-28T01:36:20.120Z,89.14
2023-01-28T01:38:47.162Z,88.50
2023-01-28T01:41:34.359Z,88.17
2023-01-28T01:44:03.538Z,88.68
2023-01-28T01:46:38.803Z,88.13
2023-01-28T01:49:29.911Z,88.07
2023-01-28T01:52:03.817Z,88.33
2023-01-28T01:54:32.812Z,87.45
2023-01-28T01:57:01.452Z,87.84
2023-01-28T01:59:32.204Z,87.83
2023-01-28T02:02:03.796Z,88.42
2023-01-28T02:04:39.152Z,88.35
2023-01-28T02:07:09.271Z,87.86
2023-01-28T02:09:38.716Z,88.18
2023-01-28T02:12:14.513Z,88.53
2023-01-28T02:14:50.002Z,87.46
2023-01-28T02:17:17.266Z,87.48
2023-01-28T02:20:01.540Z,87.98
2023-01-28T02:22:42.411Z,88.09
2023-01-28T02:25:30.326Z,87.36
2023-01-28T02:28:48.254Z,87.43
2023-01-28T02:31:19.902Z,87.23
2023-01-28T02:34:12.521Z,86.93
2023-01-28T02:36:55.214Z,86.82
2023-01-28T02:39:27.363Z,86.65
2023-01-28T02:42:13.769Z,86.60
2023-01-28T02:44:40.976Z,86.46
2023-01-28T02:47:30.985Z,87.23
2023-01-28T02:50:01.576Z,86.57
2023-01-28T02:53:06.752Z,87.00
2023-01-28T02:56:15.413Z,86.79
2023-01-28T02:58:48.579Z,87.19
2023-01-28T03:01:20.110Z,87.59
2023-01-28T03:04:07.105Z,87.31
2023-01-28T03:06:41.144Z,87.67
2023-01-28T03:09:27.409Z,87.37
2023-01-28T03:12:30.978Z,87.64
2023-01-28T03:15:21.725Z,87.04
2023-01-28T03:18:19.271Z,86.69
2023-01-28T03:21:13.175Z,86.95
2023-01-28T03:24:12.395Z,87.22
2023-01-28T03:27:06.976Z,86.46
2023-01-28T03:29:54.252Z,86.80
2023-01-28T03:32:41.677Z,87.40
2023-01-28T03:35:28.945Z,86.30
2023-01-28T03:37:55.831Z,86.52
2023-01-28T03:40:23.805Z,86.10
2023-01-28T03:42:52.338Z,86.12
2023-01-28T03:45:39.537Z,85.86
2023-01-28T03:48:06.917Z,86.17
2023-01-28T03:50:33.918Z,86.70
2023-01-28T03:53:15.851Z,86.12
2023-01-28T03:55:49.786Z,85.84
2023-01-28T03:58:17.750Z,86.55
2023-01-28T04:00:45.491Z,86.28
2023-01-28T04:03:16.723Z,85.79
2023-01-28T04:06:04.727Z,85.83
2023-01-28T04:08:56.521Z,86.59
2023-01-28T04:11:43.918Z,85.20
2023-01-28T04:14:15.372Z,86.00
2023-01-28T04:16:52.233Z,85.85
2023-01-28T04:19:19.278Z,85.48
2023-01-28T04:21:46.376Z,85.60
2023-01-28T04:24:14.037Z,85.18
2023-01-28T04:26:41.903Z,85.05
2023-01-28T04:29:08.837Z,84.96
2023-01-28T04:31:37.215Z,84.44
2023-01-28T04:34:17.933Z,84.39
2023-01-28T04:36:54.087Z,84.55
2023-01-28T04:39:39.900Z,84.77
2023-01-28T04:42:16.547Z,84.92
2023-01-28T04:45:07.435Z,84.95
2023-01-28T04:48:09.850Z,85.39
2023-01-28T04:50:45.929Z,84.28
2023-01-28T04:53:35.402Z,83.96
2023-01-28T04:56:07.894Z,84.13
2023-01-28T04:58:36.139Z,83.96
2023-01-28T05:01:06.522Z,84.18
2023-01-28T05:03:36.269Z,83.75
2023-01-28T05:06:05.245Z,84.03
2023-01-28T05:08:53.855Z,84.41
2023-01-28T05:11:20.710Z,84.25
2023-01-28T05:13:51.554Z,83.21
2023-01-28T05:16:19.778Z,83.76
2023-01-28T05:18:48.219Z,84.21
2023-01-28T05:21:18.405Z,83.97
2023-01-28T05:23:49.077Z,83.15
2023-01-28T05:26:16.165Z,83.50
2023-01-28T05:28:44.049Z,82.76
2023-01-28T05:31:11.315Z,82.81
2023-01-28T05:33:38.955Z,82.59
2023-01-28T05:36:09.424Z,82.98
2023-01-28T05:38:36.522Z,82.87
2023-01-28T05:41:03.705Z,82.61
2023-01-28T05:43:32.277Z,82.47
2023-01-28T05:46:34.956Z,82.03
2023-01-28T05:49:16.774Z,82.56
2023-01-28T05:52:16.113Z,82.19
2023-01-28T05:54:43.225Z,82.62
2023-01-28T05:57:11.394Z,82.33
2023-01-28T05:59:38.356Z,82.19
2023-01-28T06:02:05.272Z,82.40
2023-01-28T06:04:32.298Z,83.05
2023-01-28T06:06:59.658Z,83.15
2023-01-28T06:09:27.138Z,83.28
2023-01-28T06:11:54.398Z,82.66
2023-01-28T06:14:21.706Z,82.56
2023-01-28T06:17:06.097Z,82.72
2023-01-28T06:19:47.578Z,82.00
2023-01-28T06:22:14.701Z,82.14
2023-01-28T06:24:41.686Z,82.15
2023-01-28T06:27:08.699Z,82.22
2023-01-28T06:29:35.815Z,82.31
2023-01-28T06:32:02.910Z,82.03
2023-01-28T06:34:29.976Z,82.26
2023-01-28T06:36:56.992Z,82.11
2023-01-28T06:39:24.082Z,82.57
2023-01-28T06:41:51.188Z,82.00
2023-01-28T06:44:18.389Z,82.29
2023-01-28T06:46:45.436Z,81.93
2023-01-28T06:49:12.426Z,82.90
2023-01-28T06:51:39.429Z,82.81
2023-01-28T06:54:06.507Z,81.91
2023-01-28T06:56:33.508Z,82.53
2023-01-28T06:59:00.484Z,82.29
2023-01-28T07:01:27.503Z,82.35
2023-01-28T07:03:54.516Z,82.36
2023-01-28T07:06:21.486Z,82.59
2023-01-28T07:08:49.255Z,82.74
2023-01-28T07:11:17.165Z,83.08
2023-01-28T07:13:44.171Z,82.86
2023-01-28T07:16:11.133Z,82.19
2023-01-28T07:18:38.256Z,82.54
2023-01-28T07:21:05.438Z,82.50
2023-01-28T07:23:32.360Z,81.94
2023-01-28T07:26:04.035Z,82.37
2023-01-28T07:28:31.101Z,82.64
2023-01-28T07:30:58.016Z,82.38
2023-01-28T07:33:25.236Z,82.23
2023-01-28T07:35:52.124Z,81.90
2023-01-28T07:38:19.105Z,82.12
2023-01-28T07:40:47.010Z,81.49
2023-01-28T07:43:14.194Z,81.64
2023-01-28T07:45:41.503Z,81.90
2023-01-28T07:48:11.646Z,81.77
2023-01-28T07:50:38.957Z,81.94
2023-01-28T07:53:09.375Z,81.59
2023-01-28T07:55:37.619Z,82.13
2023-01-28T07:58:06.894Z,81.74
2023-01-28T08:00:36.626Z,81.90
2023-01-28T08:03:06.594Z,81.72
2023-01-28T08:05:59.480Z,81.69
2023-01-28T08:08:29.928Z,81.43
2023-01-28T08:10:56.936Z,81.83
2023-01-28T08:13:24.082Z,80.99
2023-01-28T08:15:55.970Z,80.90
2023-01-28T08:18:22.973Z,81.16
2023-01-28T08:20:49.909Z,80.56
2023-01-28T08:23:19.101Z,80.76
2023-01-28T08:25:50.515Z,81.20
2023-01-28T08:28:17.809Z,80.95
2023-01-28T08:30:45.543Z,81.29
2023-01-28T08:33:14.531Z,81.20
2023-01-28T08:35:41.699Z,81.64
2023-01-28T08:38:10.618Z,81.46
2023-01-28T08:40:37.843Z,80.96
2023-01-28T08:43:05.282Z,80.73
2023-01-28T08:45:32.584Z,80.65
2023-01-28T08:48:02.364Z,80.48
2023-01-28T08:50:32.960Z,80.66
2023-01-28T08:53:02.772Z,80.58
2023-01-28T08:55:31.050Z,80.10
2023-01-28T08:57:58.707Z,80.23
2023-01-28T09:00:25.857Z,79.73
2023-01-28T09:02:53.793Z,79.30
2023-01-28T09:05:21.518Z,78.70
2023-01-28T09:07:49.197Z,78.19
2023-01-28T09:10:17.074Z,77.80
2023-01-28T09:12:44.786Z,77.95
2023-01-28T09:15:12.446Z,78.79
2023-01-28T09:17:39.871Z,78.24
2023-01-28T09:20:08.509Z,77.87
2023-01-28T09:22:35.614Z,77.89
2023-01-28T09:25:02.570Z,78.36
2023-01-28T09:27:29.845Z,78.26
2023-01-28T09:29:56.789Z,77.70
2023-01-28T09:32:24.865Z,76.85
2023-01-28T09:34:51.881Z,77.74
2023-01-28T09:37:18.837Z,78.13
2023-01-28T09:39:45.764Z,77.58
2023-01-28T09:42:30.810Z,77.71
2023-01-28T09:45:16.411Z,78.01
2023-01-28T09:47:58.608Z,77.81
2023-01-28T09:50:39.339Z,77.64
2023-01-28T09:53:18.673Z,77.29
2023-01-28T09:56:32.035Z,76.54
2023-01-28T09:59:14.607Z,76.87
2023-01-28T10:02:04.956Z,77.52
2023-01-28T10:05:04.317Z,76.63
2023-01-28T10:07:43.444Z,76.16
2023-01-28T10:10:18.143Z,76.45
2023-01-28T10:12:48.327Z,75.61
2023-01-28T10:15:39.898Z,75.60
2023-01-28T10:18:17.648Z,76.03
2023-01-28T10:20:49.969Z,76.12
2023-01-28T10:23:42.983Z,75.55
2023-01-28T10:26:23.132Z,75.38
2023-01-28T10:28:56.427Z,75.61
2023-01-28T10:31:28.990Z,75.50
2023-01-28T10:33:56.047Z,75.98
2023-01-28T10:36:23.905Z,75.88
2023-01-28T10:38:51.878Z,75.93
2023-01-28T10:41:22.303Z,75.75
2023-01-28T10:43:50.374Z,75.79
2023-01-28T10:46:26.615Z,75.49
2023-01-28T10:49:12.093Z,75.83
2023-01-28T10:51:42.227Z,75.31
2023-01-28T10:54:21.504Z,75.24
2023-01-28T10:56:53.492Z,75.60
2023-01-28T10:59:28.400Z,75.29
2023-01-28T11:02:01.487Z,74.64
2023-01-28T11:04:31.583Z,73.98
2023-01-28T11:07:04.659Z,74.17
2023-01-28T11:09:37.385Z,74.87
2023-01-28T11:12:44.282Z,74.70
2023-01-28T11:15:18.559Z,73.73
2023-01-28T11:17:51.706Z,74.48
2023-01-28T11:20:25.828Z,74.14
2023-01-28T11:22:54.085Z,74.05
2023-01-28T11:25:30.357Z,74.03
2023-01-28T11:27:59.368Z,73.57
2023-01-28T11:30:29.601Z,73.87
2023-01-28T11:33:16.501Z,73.89
2023-01-28T11:35:52.528Z,73.67
2023-01-28T11:38:23.112Z,74.00
2023-01-28T11:40:53.048Z,73.79
2023-01-28T11:43:23.570Z,73.57
2023-01-28T11:45:56.531Z,73.77
2023-01-28T11:48:45.999Z,73.95
2023-01-28T11:51:46.490Z,73.46
2023-01-28T11:54:32.431Z,73.40
2023-01-28T11:57:08.623Z,74.05
2023-01-28T11:59:35.453Z,73.44
2023-01-28T12:02:11.369Z,73.24
2023-01-28T12:05:20.978Z,72.60
2023-01-28T12:08:01.515Z,73.39
2023-01-28T12:10:43.850Z,73.15
2023-01-28T12:13:16.784Z,73.56
2023-01-28T12:16:00.467Z,73.25
2023-01-28T12:18:58.351Z,73.24
2023-01-28T12:21:43.672Z,74.17
2023-01-28T12:24:36.772Z,73.95
2023-01-28T12:27:44.331Z,74.08
2023-01-28T12:30:24.679Z,74.42
2023-01-28T12:33:11.638Z,74.21
2023-01-28T12:35:52.371Z,74.38
2023-01-28T12:38:27.402Z,74.55
2023-01-28T12:41:08.140Z,74.73
2023-01-28T12:43:53.625Z,74.79
2023-01-28T12:46:52.391Z,74.08
2023-01-28T12:49:48.409Z,74.30
2023-01-28T12:52:44.836Z,74.88
2023-01-28T12:55:27.381Z,75.07
2023-01-28T12:57:58.624Z,75.00
2023-01-28T13:00:43.744Z,74.41
2023-01-28T13:03:56.452Z,74.80
2023-01-28T13:06:43.187Z,74.88
2023-01-28T13:09:21.951Z,74.82
2023-01-28T13:11:51.640Z,74.87
2023-01-28T13:14:28.887Z,74.40
2023-01-28T13:16:56.161Z,74.13
2023-01-28T13:19:35.890Z,74.96
2023-01-28T13:22:28.623Z,74.59
2023-01-28T13:24:56.040Z,73.89
2023-01-28T13:27:28.316Z,74.22
2023-01-28T13:30:04.595Z,74.51
2023-01-28T13:32:35.206Z,75.32
2023-01-28T13:35:08.167Z,74.52
2023-01-28T13:37:43.931Z,74.71
2023-01-28T13:40:13.553Z,74.75
2023-01-28T13:42:41.393Z,75.35
2023-01-28T13:45:17.700Z,74.93
2023-01-28T13:47:47.667Z,74.87
2023-01-28T13:50:23.587Z,75.28
2023-01-28T13:53:06.221Z,75.55
2023-01-28T13:55:44.617Z,74.78
2023-01-28T13:58:17.833Z,74.68
2023-01-28T14:01:15.793Z,75.09
2023-01-28T14:04:12.918Z,75.03
2023-01-28T14:06:42.745Z,75.23
2023-01-28T14:09:38.992Z,74.67
2023-01-28T14:12:17.870Z,75.26
2023-01-28T14:14:44.780Z,75.68
2023-01-28T14:17:27.137Z,74.89
2023-01-28T14:19:55.338Z,74.65
2023-01-28T14:22:22.448Z,75.48
2023-01-28T14:24:50.041Z,75.34
2023-01-28T14:27:29.326Z,74.86
2023-01-28T14:30:14.791Z,75.17
2023-01-28T14:32:52.667Z,75.11
2023-01-28T14:35:27.694Z,74.97
2023-01-28T14:37:55.116Z,74.75
2023-01-28T14:40:22.724Z,75.15
2023-01-28T14:42:54.781Z,75.31
2023-01-28T14:45:48.940Z,75.25
2023-01-28T14:48:39.050Z,75.65
2023-01-28T14:51:43.527Z,74.88
2023-01-28T14:54:37.922Z,75.44
2023-01-28T14:57:16.877Z,75.80
2023-01-28T14:59:52.707Z,75.99
2023-01-28T15:02:27.232Z,75.62
2023-01-28T15:04:54.994Z,75.74
2023-01-28T15:07:28.221Z,76.21
2023-01-28T15:10:04.283Z,75.96
2023-01-28T15:12:35.842Z,75.92
2023-01-28T15:15:18.980Z,76.03
2023-01-28T15:17:47.821Z,76.22
2023-01-28T15:20:23.696Z,76.21
2023-01-28T15:22:52.998Z,76.47
2023-01-28T15:25:22.786Z,76.74
2023-01-28T15:27:55.009Z,77.12
2023-01-28T15:30:27.939Z,76.74
2023-01-28T15:32:59.222Z,77.60
2023-01-28T15:35:26.403Z,76.83
2023-01-28T15:37:53.516Z,77.25
2023-01-28T15:40:22.374Z,76.85
2023-01-28T15:42:50.515Z,76.61
2023-01-28T15:45:20.019Z,76.74
2023-01-28T15:47:49.227Z,76.87
2023-01-28T15:50:25.020Z,76.82
2023-01-28T15:52:55.613Z,77.05
2023-01-28T15:55:31.186Z,76.88
2023-01-28T15:57:58.308Z,77.08
2023-01-28T16:00:25.848Z,76.89
2023-01-28T16:02:55.397Z,77.09
2023-01-28T16:05:43.147Z,76.99
2023-01-28T16:08:25.741Z,76.73
2023-01-28T16:10:54.752Z,76.78
2023-01-28T16:13:25.509Z,77.07
2023-01-28T16:15:54.503Z,77.41
2023-01-28T16:18:51.959Z,77.18
2023-01-28T16:21:44.232Z,77.97
2023-01-28T16:24:25.057Z,77.64
2023-01-28T16:27:04.128Z,77.53
2023-01-28T16:29:32.285Z,77.93
2023-01-28T16:32:00.706Z,77.68
2023-01-28T16:34:27.836Z,77.95
2023-01-28T16:37:01.896Z,77.81
2023-01-28T16:39:30.110Z,77.65
2023-01-28T16:41:57.105Z,78.09
2023-01-28T16:44:24.030Z,77.57
2023-01-28T16:46:51.282Z,77.01
2023-01-28T16:49:18.210Z,77.19
2023-01-28T16:51:45.196Z,77.25
2023-01-28T16:54:15.408Z,77.67
2023-01-28T16:56:45.690Z,77.22
2023-01-28T16:59:15.031Z,77.61
2023-01-28T17:01:43.733Z,77.72
2023-01-28T17:04:12.869Z,77.19
2023-01-28T17:06:44.727Z,77.81
2023-01-28T17:09:13.884Z,77.29
2023-01-28T17:11:41.272Z,77.44
2023-01-28T17:14:09.575Z,77.40
2023-01-28T17:16:36.592Z,77.61
2023-01-28T17:19:03.940Z,77.34
2023-01-28T17:21:30.892Z,77.98
2023-01-28T17:23:59.263Z,77.72
2023-01-28T17:26:26.409Z,77.85
2023-01-28T17:28:54.096Z,77.79
2023-01-28T17:31:21.918Z,77.50
2023-01-28T17:33:53.988Z,77.88
2023-01-28T17:36:21.487Z,77.44
2023-01-28T17:38:48.771Z,78.25
2023-01-28T17:41:17.744Z,78.07
2023-01-28T17:43:49.772Z,77.71
2023-01-28T17:46:17.281Z,77.42
2023-01-28T17:48:45.806Z,77.51
2023-01-28T17:51:13.862Z,77.53
2023-01-28T17:53:44.907Z,76.71
2023-01-28T17:56:17.669Z,77.13
2023-01-28T17:58:48.508Z,77.45
2023-01-28T18:01:15.466Z,76.72
2023-01-28T18:03:42.537Z,77.06
2023-01-28T18:06:09.459Z,76.30
2023-01-28T18:08:36.338Z,76.95
2023-01-28T18:11:06.730Z,77.08
2023-01-28T18:13:36.954Z,76.83
2023-01-28T18:16:05.072Z,76.20
2023-01-28T18:18:32.777Z,76.72
2023-01-28T18:21:18.809Z,76.70
2023-01-28T18:23:45.765Z,77.24
2023-01-28T18:26:12.602Z,76.88
2023-01-28T18:28:39.407Z,76.77
2023-01-28T18:31:07.624Z,77.28
2023-01-28T18:33:34.599Z,77.32
2023-01-28T18:36:01.628Z,77.67
2023-01-28T18:38:28.582Z,76.69
2023-01-28T18:40:56.603Z,76.68
2023-01-28T18:43:23.571Z,77.11
2023-01-28T18:45:52.240Z,76.61
2023-01-28T18:48:19.434Z,76.89
2023-01-28T18:50:54.027Z,77.21
2023-01-28T18:53:22.389Z,77.70
2023-01-28T18:55:49.500Z,77.61
2023-01-28T18:58:16.669Z,77.71
2023-01-28T19:00:43.598Z,77.15
2023-01-28T19:03:10.634Z,77.79
2023-01-28T19:05:39.515Z,78.23
2023-01-28T19:08:08.729Z,78.25
2023-01-28T19:10:36.048Z,78.48
2023-01-28T19:13:05.262Z,78.12
2023-01-28T19:15:32.389Z,78.87
2023-01-28T19:17:59.410Z,78.26
2023-01-28T19:20:26.413Z,78.58
2023-01-28T19:22:53.220Z,78.40
2023-01-28T19:25:20.501Z,78.56
2023-01-28T19:27:47.441Z,78.94
2023-01-28T19:30:14.456Z,79.72
2023-01-28T19:32:41.404Z,79.90
2023-01-28T19:35:08.413Z,80.05
2023-01-28T19:37:35.566Z,79.90
2023-01-28T19:40:02.448Z,79.39
2023-01-28T19:42:29.597Z,79.16
2023-01-28T19:44:56.500Z,79.94
2023-01-28T19:47:23.598Z,79.84
2023-01-28T19:49:50.412Z,79.45
2023-01-28T19:52:17.354Z,80.28
2023-01-28T19:54:44.280Z,79.74
2023-01-28T19:57:11.246Z,80.15
2023-01-28T19:59:56.656Z,80.04
2023-01-28T20:02:23.493Z,80.36
2023-01-28T20:05:00.100Z,79.77
2023-01-28T20:07:28.146Z,80.11
2023-01-28T20:09:55.303Z,79.83
2023-01-28T20:12:22.136Z,80.15
2023-01-28T20:14:49.005Z,80.62
2023-01-28T20:17:15.959Z,80.68
2023-01-28T20:19:42.921Z,80.33
2023-01-28T20:22:10.547Z,80.19
2023-01-28T20:24:37.392Z,80.40
2023-01-28T20:27:04.246Z,80.05
2023-01-28T20:29:31.239Z,79.47
2023-01-28T20:32:15.441Z,79.81
2023-01-28T20:34:43.330Z,80.48
2023-01-28T20:37:10.331Z,79.52
2023-01-28T20:39:37.276Z,79.77
2023-01-28T20:42:06.376Z,79.48
2023-01-28T20:44:33.377Z,79.27
2023-01-28T20:47:00.335Z,79.73
2023-01-28T20:49:28.271Z,79.58
2023-01-28T20:51:55.978Z,79.76
2023-01-28T20:54:23.284Z,79.64
2023-01-28T20:56:50.681Z,80.09
2023-01-28T20:59:17.614Z,79.68
2023-01-28T21:01:44.584Z,80.12
2023-01-28T21:04:12.137Z,80.63
2023-01-28T21:06:42.450Z,80.08
2023-01-28T21:09:09.495Z,80.06
2023-01-28T21:11:36.484Z,80.44
2023-01-28T21:14:03.592Z,80.74
2023-01-28T21:16:30.667Z,81.27
2023-01-28T21:18:57.535Z,80.94
2023-01-28T21:21:26.933Z,80.32
2023-01-28T21:23:56.980Z,80.74
2023-01-28T21:26:24.546Z,81.67
2023-01-28T21:28:51.861Z,81.14
2023-01-28T21:31:21.493Z,80.87
2023-01-28T21:33:49.948Z,80.45
2023-01-28T21:36:17.823Z,80.67
2023-01-28T21:38:45.974Z,80.49
2023-01-28T21:41:12.815Z,81.00
2023-01-28T21:43:39.921Z,80.80
2023-01-28T21:46:06.884Z,80.67
2023-01-28T21:48:33.880Z,80.84
2023-01-28T21:51:24.352Z,81.18
2023-01-28T21:53:51.395Z,81.28
2023-01-28T21:56:18.386Z,80.83
2023-01-28T21:59:03.970Z,81.58
2023-01-28T22:01:31.100Z,81.79
2023-01-28T22:03:58.192Z,82.16
2023-01-28T22:06:25.115Z,81.41
2023-01-28T22:08:53.292Z,81.64
2023-01-28T22:11:20.507Z,81.86
2023-01-28T22:13:47.604Z,81.22
2023-01-28T22:16:14.530Z,81.92
2023-01-28T22:18:41.456Z,81.69
2023-01-28T22:21:11.957Z,81.58
2023-01-28T22:23:39.588Z,81.82
2023-01-28T22:38:18.921Z,78.12
2023-01-28T22:40:45.792Z,79.14
2023-01-28T22:43:12.671Z,79.40
2023-01-28T22:45:39.605Z,79.62
2023-01-28T22:48:06.508Z,81.09
2023-01-28T22:50:33.484Z,80.82
2023-01-28T22:53:00.327Z,81.46
2023-01-28T22:55:27.267Z,81.51
2023-01-28T22:57:54.107Z,82.16
2023-01-28T23:00:21.144Z,82.53
2023-01-28T23:02:48.194Z,82.19
2023-01-28T23:05:15.099Z,82.53
2023-01-28T23:07:42.013Z,83.13
2023-01-28T23:10:09.676Z,83.38
2023-01-28T23:12:36.579Z,83.45
2023-01-28T23:15:33.317Z,83.34
2023-01-28T23:18:18.383Z,82.77
2023-01-28T23:21:04.074Z,82.57
2023-01-28T23:23:49.744Z,82.34
2023-01-28T23:26:16.702Z,81.73
2023-01-28T23:28:43.567Z,81.98
2023-01-28T23:31:10.685Z,81.91
2023-01-28T23:33:37.635Z,81.58
2023-01-28T23:36:04.851Z,81.25
2023-01-28T23:38:31.753Z,81.14
2023-01-28T23:40:58.535Z,80.58
2023-01-28T23:43:25.434Z,80.13
2023-01-28T23:45:52.251Z,79.96
2023-01-28T23:48:19.224Z,80.21
2023-01-28T23:50:46.069Z,79.78
2023-01-28T23:53:14.315Z,80.08
2023-01-28T23:55:41.187Z,79.96
2023-01-28T23:58:08.030Z,79.58
